| time (UTC) | temp F | wind direction | speed knots | gust knots | rain 1hr in | rain 24hr in | rain mn in | humidity % | barometer mb |
| 20260906231550 | 83 | 0 | 0.0 | 3.5 | 0.00 | 0.00 | 0.00 | 62 | 1014.7 |
| 20260906230058 | 83 | 0 | 0.0 | 0.9 | 0.00 | 0.00 | 0.00 | 64 | 1014.7 |
| 20260906224555 | 82 | 0 | 0.0 | 3.5 | 0.00 | 0.00 | 0.00 | 66 | 1015.1 |
| 20260906223100 | 82 | 167 | 0.9 | 4.3 | 0.00 | 0.00 | 0.00 | 68 | 1015.4 |
| 20260906221550 | 80 | 165 | 1.7 | 7.8 | 0.00 | 0.00 | 0.00 | 71 | 1015.6 |
| 20260906220055 | 80 | 175 | 2.6 | 7.8 | 0.00 | 0.00 | 0.00 | 72 | 1015.8 |
| 20260906214601 | 81 | 123 | 5.2 | 8.7 | 0.00 | 0.00 | 0.00 | 69 | 1015.7 |
| 20260906213046 | 81 | 173 | 4.3 | 13.0 | 0.00 | 0.00 | 0.00 | 69 | 1015.9 |
| 20260906211558 | 81 | 129 | 5.2 | 9.6 | 0.00 | 0.00 | 0.00 | 69 | 1015.9 |
| 20260906210113 | 82 | 137 | 5.2 | 11.3 | 0.00 | 0.00 | 0.00 | 66 | 1016.0 |
| 20260906204602 | 85 | 171 | 4.3 | 11.3 | 0.00 | 0.00 | 0.00 | 60 | 1015.9 |
| 20260906203049 | 87 | 125 | 6.1 | 14.8 | 0.00 | 0.00 | 0.00 | 56 | 1015.8 |
| 20260906201553 | 90 | 99 | 2.6 | 8.7 | 0.00 | 0.00 | 0.00 | 52 | 1015.8 |
| 20260906200052 | 90 | 80 | 3.5 | 7.8 | 0.00 | 0.00 | 0.00 | 52 | 1015.7 |
| 20260906194559 | 89 | 142 | 3.5 | 9.6 | 0.00 | 0.00 | 0.00 | 52 | 1015.8 |
| 20260906193054 | 93 | 116 | 4.3 | 12.2 | 0.00 | 0.00 | 0.00 | 47 | 1015.7 |
| 20260906191605 | 97 | 92 | 3.5 | 9.6 | 0.00 | 0.00 | 0.00 | 42 | 1015.9 |
| 20260906190051 | 98 | 184 | 7.8 | 11.3 | 0.00 | 0.00 | 0.00 | 36 | 1016.0 |
| 20260906184553 | 97 | 161 | 4.3 | 9.6 | 0.00 | 0.00 | 0.00 | 38 | 1016.1 |
| 20260906183054 | 96 | 150 | 3.5 | 11.3 | 0.00 | 0.00 | 0.00 | 38 | 1016.2 |
| 20260906181557 | 95 | 189 | 2.6 | 8.7 | 0.00 | 0.00 | 0.00 | 41 | 1016.5 |
| 20260906180115 | 95 | 138 | 4.3 | 11.3 | 0.00 | 0.00 | 0.00 | 43 | 1016.7 |
| 20260906174602 | 94 | 142 | 3.5 | 8.7 | 0.00 | 0.00 | 0.00 | 43 | 1017.0 |
| 20260906173058 | 95 | 131 | 2.6 | 6.1 | 0.00 | 0.00 | 0.00 | 44 | 1017.2 |
| 20260906171547 | 94 | 142 | 3.5 | 6.1 | 0.00 | 0.00 | 0.00 | 44 | 1017.3 |
| 20260906170106 | 92 | 113 | 0.9 | 6.1 | 0.00 | 0.00 | 0.00 | 45 | 1017.6 |
| 20260906164553 | 92 | 129 | 2.6 | 7.0 | 0.00 | 0.00 | 0.00 | 49 | 1017.7 |
| 20260906163057 | 90 | 148 | 2.6 | 7.8 | 0.00 | 0.00 | 0.00 | 52 | 1017.7 |
| 20260906161556 | 89 | 140 | 2.6 | 7.0 | 0.00 | 0.00 | 0.00 | 54 | 1017.7 |
| 20260906160053 | 88 | 152 | 1.7 | 4.3 | 0.00 | 0.00 | 0.00 | 57 | 1017.6 |
| 20260906154556 | 87 | 136 | 2.6 | 7.8 | 0.00 | 0.00 | 0.00 | 57 | 1017.5 |
| 20260906153114 | 85 | 0 | 0.9 | 6.1 | 0.00 | 0.00 | 0.00 | 63 | 1017.3 |
| 20260906151601 | 84 | 161 | 2.6 | 7.8 | 0.00 | 0.00 | 0.00 | 65 | 1017.2 |
| 20260906150053 | 82 | 150 | 0.9 | 3.5 | 0.00 | 0.00 | 0.00 | 68 | 1017.3 |
| 20260906144559 | 82 | 146 | 1.7 | 6.1 | 0.00 | 0.00 | 0.00 | 69 | 1017.2 |
| 20260906143049 | 82 | 207 | 0.9 | 5.2 | 0.00 | 0.00 | 0.00 | 70 | 1017.2 |
| 20260906141555 | 80 | 174 | 3.5 | 6.1 | 0.00 | 0.00 | 0.00 | 72 | 1017.3 |
| 20260906140054 | 78 | 166 | 0.9 | 3.5 | 0.00 | 0.00 | 0.00 | 74 | 1017.1 |
| 20260906134610 | 77 | 158 | 0.0 | 1.7 | 0.00 | 0.00 | 0.00 | 76 | 1017.0 |
| 20260906133101 | 76 | 0 | 0.0 | 0.9 | 0.00 | 0.00 | 0.00 | 78 | 1016.8 |
| 20260906131548 | 73 | 0 | 0.0 | 0.0 | 0.00 | 0.00 | 0.00 | 81 | 1016.6 |
| 20260906130056 | 73 | 0 | 0.0 | 0.9 | 0.00 | 0.00 | 0.00 | 81 | 1016.3 |
| 20260906124550 | 72 | 0 | 0.0 | 0.0 | 0.00 | 0.00 | 0.00 | 82 | 1016.1 |
| 20260906123057 | 71 | 0 | 0.0 | 0.0 | 0.00 | 0.00 | 0.00 | 84 | 1016.0 |
| 20260906121546 | 71 | 0 | 0.0 | 0.0 | 0.00 | 0.00 | 0.00 | 83 | 1015.8 |
| 20260906120052 | 72 | 0 | 0.0 | 0.9 | 0.00 | 0.00 | 0.00 | 82 | 1015.7 |
| 20260906114547 | 72 | 0 | 0.0 | 2.6 | 0.00 | 0.00 | 0.00 | 81 | 1015.6 |
| 20260906113049 | 73 | 0 | 0.0 | 1.7 | 0.00 | 0.00 | 0.00 | 80 | 1015.2 |
| 20260906111558 | 74 | 158 | 0.0 | 1.7 | 0.00 | 0.00 | 0.00 | 78 | 1015.2 |
| 20260906110055 | 73 | 0 | 0.0 | 0.0 | 0.00 | 0.00 | 0.00 | 81 | 1015.1 |
| 20260906104552 | 73 | 0 | 0.0 | 0.0 | 0.00 | 0.00 | 0.00 | 82 | 1015.0 |
| 20260906103111 | 73 | 0 | 0.0 | 0.0 | 0.00 | 0.00 | 0.00 | 80 | 1015.1 |
| 20260906101557 | 73 | 0 | 0.0 | 0.0 | 0.00 | 0.00 | 0.00 | 81 | 1015.0 |
| 20260906100054 | 73 | 0 | 0.0 | 0.0 | 0.00 | 0.00 | 0.00 | 79 | 1014.9 |
| 20260906094548 | 73 | 0 | 0.0 | 0.0 | 0.00 | 0.00 | 0.00 | 80 | 1015.1 |
| 20260906093058 | 74 | 0 | 0.0 | 1.7 | 0.00 | 0.00 | 0.00 | 78 | 1015.2 |
| 20260906091550 | 74 | 0 | 0.0 | 1.7 | 0.00 | 0.00 | 0.00 | 78 | 1015.1 |
| 20260906090104 | 74 | 0 | 0.9 | 1.7 | 0.00 | 0.00 | 0.00 | 78 | 1015.2 |
| 20260906084558 | 75 | 158 | 0.9 | 1.7 | 0.00 | 0.00 | 0.00 | 76 | 1015.2 |
| 20260906083053 | 75 | 158 | 0.9 | 1.7 | 0.00 | 0.00 | 0.00 | 76 | 1015.2 |
| 20260906081600 | 75 | 0 | 0.9 | 4.3 | 0.00 | 0.00 | 0.00 | 75 | 1015.4 |
| 20260906080125 | 76 | 166 | 1.7 | 5.2 | 0.00 | 0.00 | 0.00 | 74 | 1015.4 |
| 20260906074608 | 76 | 144 | 1.7 | 5.2 | 0.00 | 0.00 | 0.00 | 73 | 1015.5 |
| 20260906073108 | 76 | 360 | 1.7 | 5.2 | 0.00 | 0.00 | 0.00 | 72 | 1015.9 |
| 20260906071558 | 77 | 125 | 1.7 | 6.1 | 0.00 | 0.00 | 0.00 | 71 | 1016.0 |
| 20260906070056 | 77 | 153 | 2.6 | 7.0 | 0.00 | 0.00 | 0.00 | 71 | 1016.0 |
| 20260906064549 | 78 | 160 | 2.6 | 7.8 | 0.00 | 0.00 | 0.00 | 70 | 1016.1 |
| 20260906063052 | 78 | 153 | 2.6 | 8.7 | 0.00 | 0.00 | 0.00 | 70 | 1016.1 |
| 20260906061547 | 78 | 136 | 4.3 | 9.6 | 0.00 | 0.00 | 0.00 | 69 | 1016.3 |
| 20260906060058 | 79 | 154 | 4.3 | 7.8 | 0.00 | 0.00 | 0.00 | 69 | 1016.4 |
| 20260906054549 | 79 | 124 | 3.5 | 6.1 | 0.00 | 0.00 | 0.00 | 67 | 1016.4 |
| 20260906053045 | 80 | 125 | 5.2 | 11.3 | 0.00 | 0.00 | 0.00 | 66 | 1016.3 |
| 20260906051603 | 80 | 182 | 4.3 | 8.7 | 0.00 | 0.00 | 0.00 | 65 | 1016.1 |
| 20260906050107 | 80 | 155 | 4.3 | 8.7 | 0.00 | 0.00 | 0.00 | 63 | 1016.1 |
| 20260906044554 | 80 | 162 | 5.2 | 9.6 | 0.00 | 0.00 | 0.00 | 63 | 1016.2 |
| 20260906043101 | 78 | 146 | 4.3 | 7.8 | 0.00 | 0.00 | 0.00 | 66 | 1016.3 |
| 20260906041603 | 81 | 143 | 0.9 | 2.6 | 0.00 | 0.00 | 0.00 | 61 | 1016.2 |
| 20260906040053 | 82 | 131 | 0.9 | 1.7 | 0.00 | 0.00 | 0.00 | 59 | 1015.9 |
| 20260906034617 | 82 | 0 | 0.0 | 0.9 | 0.00 | 0.00 | 0.00 | 59 | 1015.7 |
| 20260906033055 | 82 | 0 | 0.0 | 1.7 | 0.00 | 0.00 | 0.00 | 58 | 1015.8 |
| 20260906031554 | 82 | 0 | 0.0 | 1.7 | 0.00 | 0.00 | 0.00 | 58 | 1015.6 |
| 20260906030059 | 83 | 131 | 0.9 | 3.5 | 0.00 | 0.00 | 0.00 | 57 | 1015.4 |
| 20260906024555 | 83 | 136 | 1.7 | 3.5 | 0.00 | 0.00 | 0.00 | 57 | 1015.1 |
| 20260906023057 | 83 | 110 | 0.0 | 2.6 | 0.00 | 0.00 | 0.00 | 57 | 1014.8 |
| 20260906021603 | 84 | 110 | 1.7 | 3.5 | 0.00 | 0.00 | 0.00 | 56 | 1014.5 |
| 20260906020059 | 84 | 129 | 0.9 | 3.5 | 0.00 | 0.00 | 0.00 | 56 | 1014.2 |
| 20260906014555 | 85 | 139 | 1.7 | 3.5 | 0.00 | 0.00 | 0.00 | 54 | 1014.1 |
| 20260906013103 | 85 | 360 | 1.7 | 4.3 | 0.00 | 0.00 | 0.00 | 53 | 1014.0 |
| 20260906011558 | 86 | 157 | 2.6 | 5.2 | 0.00 | 0.00 | 0.00 | 52 | 1013.9 |
| 20260906010057 | 87 | 360 | 2.6 | 8.7 | 0.00 | 0.00 | 0.00 | 51 | 1013.8 |
| 20260906004555 | 88 | 139 | 4.3 | 8.7 | 0.00 | 0.00 | 0.00 | 50 | 1013.9 |
| 20260906003052 | 89 | 118 | 4.3 | 8.7 | 0.00 | 0.00 | 0.00 | 49 | 1013.9 |
| 20260906001556 | 89 | 140 | 3.5 | 10.4 | 0.00 | 0.00 | 0.00 | 47 | 1013.7 |
| 20260906000106 | 90 | 142 | 4.3 | 13.0 | 0.00 | 0.00 | 0.00 | 47 | 1013.6 |
| 20260905234606 | 90 | 159 | 5.2 | 10.4 | 0.00 | 0.00 | 0.00 | 46 | 1013.5 |
| 20260905233046 | 90 | 151 | 5.2 | 10.4 | 0.00 | 0.00 | 0.00 | 46 | 1013.5 |